Time;durP1;ratioP1;P1;durP2;ratioP2;P2;SDS_P1;SDS_P2;PMS_P1;PMS_P2;Temp;Humidity;BMP_temperature;BMP_pressure;BME280_temperature;BME280_humidity;BME280_pressure;Samples;Min_cycle;Max_cycle;Signal;HPM_P1;HPM_P2
2021/12/04 00:01:22;;;;;;;5.97;2.28;;;1.90;99.90;;;;;;5035963;28;20139;-88
2021/12/04 00:03:49;;;;;;;2.95;2.15;;;2.00;99.90;;;;;;5036214;28;20104;-89
2021/12/04 00:06:24;;;;;;;4.00;2.30;;;2.00;99.90;;;;;;5036270;28;20051;-89
2021/12/04 00:08:51;;;;;;;4.15;2.85;;;2.00;99.90;;;;;;5036052;28;20063;-89
2021/12/04 00:11:18;;;;;;;3.67;1.95;;;1.90;99.90;;;;;;5036170;28;20382;-90
2021/12/04 00:13:45;;;;;;;2.55;2.35;;;1.90;99.90;;;;;;5035926;28;20106;-89
2021/12/04 00:16:12;;;;;;;2.97;2.78;;;1.90;99.90;;;;;;5035746;28;20049;-90
2021/12/04 00:18:39;;;;;;;4.28;2.65;;;2.00;99.90;;;;;;5038322;28;20144;-90
2021/12/04 00:21:06;;;;;;;2.95;2.65;;;1.90;99.90;;;;;;5036885;28;20056;-88
2021/12/04 00:23:33;;;;;;;3.85;2.95;;;2.00;99.90;;;;;;5035741;28;20048;-89
2021/12/04 00:26:01;;;;;;;3.22;2.80;;;1.90;99.90;;;;;;5035755;28;20056;-89
2021/12/04 00:28:28;;;;;;;3.17;2.50;;;1.90;99.90;;;;;;5035945;28;20045;-89
2021/12/04 00:30:55;;;;;;;5.28;2.78;;;1.90;99.90;;;;;;5035977;28;20552;-89
2021/12/04 00:33:29;;;;;;;10.55;3.13;;;1.80;99.90;;;;;;5035787;28;20055;-89
2021/12/04 00:36:02;;;;;;;2.90;2.58;;;1.80;99.90;;;;;;5035976;28;20135;-89
2021/12/04 00:43:21;;;;;;;4.18;2.97;;;1.80;99.90;;;;;;5053193;28;20409;-88
2021/12/04 00:49:18;;;;;;;2.60;2.40;;;1.80;99.90;;;;;;5053150;28;20098;-89
2021/12/04 00:51:54;;;;;;;4.70;3.47;;;1.80;99.90;;;;;;5035644;28;20501;-88
2021/12/04 00:54:25;;;;;;;4.80;2.80;;;1.80;99.90;;;;;;5035606;28;20067;-89
2021/12/04 00:56:52;;;;;;;3.88;2.67;;;1.80;99.90;;;;;;5035300;28;20412;-88
2021/12/04 00:59:20;;;;;;;5.72;2.75;;;1.80;99.90;;;;;;5035393;28;20059;-89
2021/12/04 01:01:47;;;;;;;2.90;2.45;;;1.80;99.90;;;;;;5036024;28;20057;-90
2021/12/04 01:04:17;;;;;;;2.92;2.55;;;1.80;99.90;;;;;;5035481;28;20049;-89
2021/12/04 01:06:45;;;;;;;7.78;3.05;;;1.80;99.90;;;;;;5032192;28;20100;-89
2021/12/04 01:09:14;;;;;;;3.33;3.03;;;1.80;99.90;;;;;;5031982;28;20045;-90
2021/12/04 01:11:42;;;;;;;3.88;3.10;;;1.70;99.90;;;;;;5035173;28;20049;-91
2021/12/04 01:14:10;;;;;;;4.20;3.30;;;1.70;99.90;;;;;;5035121;28;20461;-90
2021/12/04 01:16:37;;;;;;;4.38;3.35;;;1.70;99.90;;;;;;5034724;28;20056;-89
2021/12/04 01:19:04;;;;;;;4.50;3.17;;;1.70;99.90;;;;;;5035301;28;20520;-91
2021/12/04 01:21:31;;;;;;;5.00;3.60;;;1.70;99.90;;;;;;5052935;28;20049;-90
2021/12/04 01:23:58;;;;;;;6.13;3.80;;;1.60;99.90;;;;;;5035492;28;20051;-91
2021/12/04 01:26:25;;;;;;;5.32;3.30;;;1.60;99.90;;;;;;5035364;28;20045;-89
2021/12/04 01:28:53;;;;;;;4.22;3.63;;;1.60;99.90;;;;;;5052408;28;20123;-90
2021/12/04 01:31:20;;;;;;;5.55;3.78;;;1.60;99.90;;;;;;5034965;28;20150;-89
2021/12/04 01:33:47;;;;;;;6.13;3.83;;;1.60;99.90;;;;;;5035042;28;20075;-89
2021/12/04 01:36:14;;;;;;;4.88;3.97;;;1.60;99.90;;;;;;5054007;28;20448;-88
2021/12/04 01:38:41;;;;;;;4.80;4.22;;;1.50;99.90;;;;;;5038632;28;20045;-90
2021/12/04 01:41:08;;;;;;;5.35;4.10;;;1.50;99.90;;;;;;5056156;28;20051;-89
2021/12/04 01:43:35;;;;;;;6.78;4.20;;;1.40;99.90;;;;;;5056124;28;20135;-89
2021/12/04 01:46:02;;;;;;;7.57;4.20;;;1.40;99.90;;;;;;5038549;28;20049;-89
2021/12/04 01:48:29;;;;;;;4.55;3.95;;;1.40;99.90;;;;;;5038246;28;20055;-89
2021/12/04 01:50:56;;;;;;;7.00;4.32;;;1.40;99.90;;;;;;5038314;28;20553;-90
2021/12/04 01:53:24;;;;;;;6.40;4.60;;;1.30;99.90;;;;;;5038720;28;20048;-90
2021/12/04 01:55:53;;;;;;;6.22;4.10;;;1.40;99.90;;;;;;5038442;28;20049;-91
2021/12/04 01:58:21;;;;;;;5.28;3.95;;;1.30;99.90;;;;;;5038215;28;20045;-90
2021/12/04 02:00:48;;;;;;;4.32;3.88;;;1.30;99.90;;;;;;5038185;28;20056;-89
2021/12/04 02:03:17;;;;;;;5.30;3.97;;;1.40;99.90;;;;;;5038247;28;20083;-89
2021/12/04 02:05:45;;;;;;;4.70;4.30;;;1.40;99.90;;;;;;5038025;28;20107;-90
2021/12/04 02:08:22;;;;;;;6.53;4.45;;;1.40;99.90;;;;;;5038407;28;20081;-90
2021/12/04 02:10:52;;;;;;;3.97;3.58;;;1.40;99.90;;;;;;5055832;28;20045;-90
2021/12/04 02:13:21;;;;;;;5.13;3.90;;;1.40;99.90;;;;;;5038433;28;20480;-90
2021/12/04 02:15:48;;;;;;;8.93;4.35;;;1.40;99.90;;;;;;5038266;28;20049;-90
2021/12/04 02:18:16;;;;;;;4.20;3.85;;;1.40;99.90;;;;;;5037966;28;20408;-88
2021/12/04 02:20:44;;;;;;;5.03;4.00;;;1.40;99.90;;;;;;5037273;28;20148;-90
2021/12/04 02:23:11;;;;;;;8.48;4.72;;;1.40;99.90;;;;;;5055471;28;20045;-90
2021/12/04 02:25:39;;;;;;;8.70;4.38;;;1.40;99.90;;;;;;5038167;28;20049;-89
2021/12/04 02:28:07;;;;;;;4.97;4.38;;;1.50;99.90;;;;;;5038258;28;20071;-89
2021/12/04 02:30:36;;;;;;;5.28;3.88;;;1.50;99.90;;;;;;5037862;28;20049;-89
2021/12/04 02:33:11;;;;;;;4.57;3.80;;;1.50;99.90;;;;;;5037904;28;20128;-89
2021/12/04 02:35:41;;;;;;;6.35;4.25;;;1.50;99.90;;;;;;5037460;28;20056;-89
2021/12/04 02:38:08;;;;;;;5.20;4.07;;;1.40;99.90;;;;;;5037781;28;20421;-89
2021/12/04 02:40:35;;;;;;;4.85;4.38;;;1.30;99.90;;;;;;5037492;28;20091;-89
2021/12/04 02:43:03;;;;;;;7.43;4.07;;;1.30;99.90;;;;;;5037704;28;20051;-89
2021/12/04 02:45:30;;;;;;;4.28;3.88;;;1.40;99.90;;;;;;5037966;28;20512;-89
2021/12/04 02:47:57;;;;;;;4.18;3.58;;;1.40;99.90;;;;;;5036777;28;20059;-90
2021/12/04 02:50:23;;;;;;;7.45;4.80;;;1.40;99.90;;;;;;5038888;28;20075;-90
2021/12/04 02:52:50;;;;;;;7.30;3.95;;;1.30;99.90;;;;;;5037665;28;20055;-89
2021/12/04 02:55:18;;;;;;;4.40;4.00;;;1.40;99.90;;;;;;5037651;28;20136;-89
2021/12/04 02:57:45;;;;;;;5.85;4.32;;;1.30;99.90;;;;;;5037221;28;20479;-89
2021/12/04 03:00:22;;;;;;;5.70;4.85;;;1.40;99.90;;;;;;5037306;28;20044;-89
2021/12/04 03:02:49;;;;;;;5.53;4.65;;;1.20;99.90;;;;;;5037229;28;20459;-89
2021/12/04 03:05:23;;;;;;;8.45;5.25;;;1.10;99.90;;;;;;5037464;28;20404;-89
2021/12/04 03:07:52;;;;;;;7.80;5.10;;;1.20;99.90;;;;;;5034077;28;20057;-89
2021/12/04 03:10:19;;;;;;;5.53;5.00;;;1.00;99.90;;;;;;5034168;28;20055;-88
2021/12/04 03:12:46;;;;;;;7.00;5.07;;;1.10;99.90;;;;;;5037061;28;20052;-88
2021/12/04 03:15:13;;;;;;;5.55;5.00;;;1.00;99.90;;;;;;5036769;28;20457;-89
2021/12/04 03:17:40;;;;;;;7.47;4.57;;;1.10;99.90;;;;;;5036875;28;20485;-89
2021/12/04 03:20:08;;;;;;;6.38;4.65;;;1.00;99.90;;;;;;5036852;28;20075;-89
2021/12/04 03:22:35;;;;;;;5.90;4.28;;;1.10;99.90;;;;;;5037034;28;20071;-89
2021/12/04 03:25:03;;;;;;;6.78;4.35;;;1.20;99.90;;;;;;5036796;28;20120;-89
2021/12/04 03:27:31;;;;;;;7.07;4.55;;;1.30;99.90;;;;;;5036808;28;20055;-89
2021/12/04 03:30:01;;;;;;;5.38;4.82;;;1.30;99.90;;;;;;5036872;28;20053;-89
2021/12/04 03:32:57;;;;;;;6.65;4.55;;;1.20;99.90;;;;;;5036751;28;20059;-89
2021/12/04 03:40:51;;;;;;;6.00;4.72;;;1.30;99.90;;;;;;5054254;28;20049;-89
2021/12/04 03:43:18;;;;;;;6.55;4.75;;;1.30;99.90;;;;;;5036882;28;20477;-89
2021/12/04 03:45:49;;;;;;;17.83;6.10;;;1.20;99.90;;;;;;5036678;28;20140;-90
2021/12/04 03:51:15;;;;;;;7.13;5.68;;;1.30;99.90;;;;;;5020768;28;20059;-89
2021/12/04 03:53:41;;;;;;;6.47;5.20;;;1.30;99.90;;;;;;5036273;28;20132;-89
2021/12/04 03:56:10;;;;;;;5.55;5.05;;;1.40;99.90;;;;;;5036530;28;20565;-88
2021/12/04 03:58:37;;;;;;;5.60;5.00;;;1.40;99.90;;;;;;5036051;28;20143;-89
2021/12/04 04:01:04;;;;;;;6.20;4.90;;;1.40;99.90;;;;;;5036367;28;20053;-89
2021/12/04 04:03:31;;;;;;;6.03;5.05;;;1.40;99.90;;;;;;5036070;28;20052;-90
2021/12/04 04:05:57;;;;;;;5.95;4.82;;;1.50;99.90;;;;;;5036448;28;20055;-89
2021/12/04 04:08:24;;;;;;;4.45;4.05;;;1.50;99.90;;;;;;5036173;28;20059;-89
2021/12/04 04:10:53;;;;;;;4.82;4.43;;;1.50;99.90;;;;;;5053461;28;20417;-88
2021/12/04 04:13:21;;;;;;;8.10;4.50;;;1.60;99.90;;;;;;5035834;28;20140;-89
2021/12/04 04:15:48;;;;;;;4.65;4.25;;;1.60;99.90;;;;;;5035877;28;20473;-89
2021/12/04 04:18:15;;;;;;;3.92;3.65;;;1.50;99.90;;;;;;5036227;28;20457;-89
2021/12/04 04:20:42;;;;;;;4.80;4.35;;;1.50;99.90;;;;;;5035713;28;20049;-89
2021/12/04 04:23:09;;;;;;;5.15;4.20;;;1.60;99.90;;;;;;5036098;28;20515;-90
2021/12/04 04:25:36;;;;;;;4.78;4.38;;;1.60;99.90;;;;;;5035773;28;20049;-89
2021/12/04 04:28:03;;;;;;;4.07;3.72;;;1.60;99.90;;;;;;5035970;28;20511;-89
2021/12/04 04:30:30;;;;;;;3.40;3.20;;;1.60;99.90;;;;;;5035986;28;20469;-89
2021/12/04 04:32:56;;;;;;;3.70;3.40;;;1.60;99.90;;;;;;5053328;28;20408;-89
2021/12/04 04:35:26;;;;;;;4.00;3.67;;;1.60;99.90;;;;;;5035185;28;20548;-89
2021/12/04 04:38:17;;;;;;;3.72;3.10;;;1.70;99.90;;;;;;5035883;28;20504;-89
2021/12/04 04:58:02;;;;;;;3.50;3.30;;;1.40;99.90;;;;;;5052810;28;20482;-89
2021/12/04 05:00:52;;;;;;;3.83;3.42;;;1.40;99.90;;;;;;5035546;28;20041;-89
2021/12/04 05:11:41;;;;;;;3.85;3.55;;;1.20;99.90;;;;;;5054822;28;20049;-89
2021/12/04 05:14:16;;;;;;;4.55;3.40;;;1.20;99.90;;;;;;5039993;28;20057;-89
2021/12/04 05:16:50;;;;;;;4.28;3.88;;;1.20;99.90;;;;;;5038876;28;20473;-89
2021/12/04 05:19:36;;;;;;;3.88;3.58;;;1.00;99.90;;;;;;5038948;28;20057;-89
2021/12/04 05:22:05;;;;;;;4.47;4.07;;;1.00;99.90;;;;;;5056300;28;20055;-89
2021/12/04 05:24:32;;;;;;;4.47;4.18;;;1.00;99.90;;;;;;5038446;28;20519;-89
2021/12/04 05:26:59;;;;;;;4.57;4.18;;;1.00;99.90;;;;;;5038396;28;20048;-89
2021/12/04 05:29:26;;;;;;;3.67;3.47;;;1.00;99.90;;;;;;5038772;28;20404;-89
2021/12/04 05:31:53;;;;;;;3.85;3.55;;;1.00;99.90;;;;;;5039060;28;20040;-89
2021/12/04 05:34:20;;;;;;;3.40;3.10;;;1.00;99.90;;;;;;5056154;28;20048;-87
2021/12/04 05:36:47;;;;;;;3.80;3.50;;;1.00;99.90;;;;;;5038616;28;20049;-89
2021/12/04 05:39:14;;;;;;;3.75;3.45;;;1.00;99.90;;;;;;5038658;28;20045;-89
2021/12/04 05:41:41;;;;;;;3.85;3.53;;;1.00;99.90;;;;;;5038674;28;20493;-89
2021/12/04 05:44:10;;;;;;;3.85;3.40;;;1.00;99.90;;;;;;5038844;28;20131;-89
2021/12/04 05:46:43;;;;;;;3.90;3.70;;;1.00;99.90;;;;;;5038406;28;20053;-89
2021/12/04 05:49:16;;;;;;;4.53;3.85;;;1.00;99.90;;;;;;5038401;28;20497;-89
2021/12/04 05:52:07;;;;;;;4.10;3.70;;;1.00;99.90;;;;;;5038580;28;20059;-89
2021/12/04 05:57:04;;;;;;;3.50;3.30;;;1.00;99.90;;;;;;5055828;28;20059;-90
2021/12/04 05:59:31;;;;;;;3.35;3.15;;;1.00;99.90;;;;;;5055668;28;20056;-90
2021/12/04 06:01:58;;;;;;;3.30;3.10;;;1.00;99.90;;;;;;5038396;28;20398;-89
2021/12/04 06:04:25;;;;;;;3.53;3.33;;;1.00;99.90;;;;;;5038190;28;20072;-89
2021/12/04 06:06:52;;;;;;;3.60;3.33;;;1.00;99.90;;;;;;5038013;28;20059;-89
2021/12/04 06:09:20;;;;;;;4.70;4.07;;;1.00;99.90;;;;;;5055472;28;20053;-89
2021/12/04 06:11:47;;;;;;;3.67;3.47;;;1.00;99.90;;;;;;5055957;28;20053;-89
2021/12/04 06:14:14;;;;;;;10.13;4.35;;;1.00;99.90;;;;;;5055435;28;20048;-89
2021/12/04 06:16:41;;;;;;;3.90;3.60;;;1.00;99.90;;;;;;5055326;28;20555;-89
2021/12/04 06:19:13;;;;;;;5.50;4.55;;;1.00;99.90;;;;;;5037076;28;20061;-89
2021/12/04 06:24:25;;;;;;;20.70;5.55;;;1.00;99.90;;;;;;5055300;28;20136;-88
2021/12/04 06:26:52;;;;;;;5.55;4.53;;;1.00;99.90;;;;;;5037888;28;20048;-89
2021/12/04 06:29:19;;;;;;;11.02;5.03;;;1.00;99.90;;;;;;5055461;28;20057;-89
2021/12/04 06:31:45;;;;;;;8.02;4.50;;;0.90;99.90;;;;;;5037855;28;20110;-89
2021/12/04 06:34:12;;;;;;;7.43;4.40;;;0.90;99.90;;;;;;5037635;28;20458;-89
2021/12/04 06:36:39;;;;;;;3.90;3.30;;;0.90;99.90;;;;;;5037418;28;20056;-90
2021/12/04 06:39:06;;;;;;;3.70;3.40;;;0.90;99.90;;;;;;5037643;28;20053;-90
2021/12/04 06:41:33;;;;;;;3.42;3.13;;;0.90;99.90;;;;;;5037739;28;20136;-89
2021/12/04 06:43:59;;;;;;;2.90;2.70;;;1.00;99.90;;;;;;5037435;28;20067;-89
2021/12/04 06:46:27;;;;;;;3.05;2.85;;;1.00;99.90;;;;;;5037466;28;20177;-89
2021/12/04 06:51:36;;;;;;;40.08;26.63;;;1.00;99.90;;;;;;5055064;28;20489;-88
2021/12/04 06:56:35;;;;;;;31.25;20.25;;;0.90;99.90;;;;;;5054043;28;20049;-89
2021/12/04 06:59:07;;;;;;;25.63;18.17;;;0.90;99.90;;;;;;5054666;28;20573;-89
2021/12/04 07:01:35;;;;;;;4.47;4.18;;;0.90;99.90;;;;;;5054649;28;20055;-89
2021/12/04 07:04:03;;;;;;;3.45;3.22;;;0.90;99.90;;;;;;5054528;28;20040;-89
2021/12/04 07:06:30;;;;;;;2.70;2.55;;;1.00;99.90;;;;;;5037176;28;20056;-89
2021/12/04 07:08:58;;;;;;;2.85;2.70;;;1.00;99.90;;;;;;5037125;28;20135;-89
2021/12/04 07:11:26;;;;;;;3.88;3.58;;;1.00;99.90;;;;;;5036913;28;20051;-90
2021/12/04 07:13:54;;;;;;;2.95;2.78;;;1.00;99.90;;;;;;5054507;28;20075;-89
2021/12/04 07:16:23;;;;;;;4.13;3.83;;;1.00;99.90;;;;;;5036274;28;20041;-88
2021/12/04 07:18:50;;;;;;;5.53;5.03;;;1.00;99.90;;;;;;5057128;28;20056;-89
2021/12/04 07:21:18;;;;;;;4.35;3.95;;;1.00;99.90;;;;;;5056520;28;20048;-89
2021/12/04 07:23:45;;;;;;;5.07;4.65;;;0.90;99.90;;;;;;5056614;28;20110;-89
2021/12/04 07:26:12;;;;;;;6.82;6.22;;;1.00;99.90;;;;;;5056742;28;20068;-88
2021/12/04 07:28:39;;;;;;;6.47;5.97;;;1.00;99.90;;;;;;5056361;28;20143;-88
2021/12/04 07:31:07;;;;;;;7.60;6.88;;;1.10;99.90;;;;;;5056492;28;20143;-89
2021/12/04 07:33:34;;;;;;;4.22;3.88;;;1.10;99.90;;;;;;5044330;28;20045;-89
2021/12/04 07:36:01;;;;;;;4.90;4.45;;;1.20;99.90;;;;;;5036152;28;20148;-89
2021/12/04 07:38:29;;;;;;;11.00;9.45;;;1.20;99.90;;;;;;5035966;28;20052;-88
2021/12/04 07:41:00;;;;;;;8.88;8.07;;;1.20;99.90;;;;;;5053844;28;20057;-87
2021/12/04 07:43:27;;;;;;;6.68;6.07;;;1.20;99.90;;;;;;5036184;28;20057;-87
2021/12/04 07:45:55;;;;;;;3.70;3.50;;;1.20;99.90;;;;;;5036301;28;20063;-88
2021/12/04 07:48:22;;;;;;;3.80;3.60;;;1.30;99.90;;;;;;5053742;28;20497;-87
2021/12/04 07:50:49;;;;;;;3.33;3.13;;;1.30;99.90;;;;;;5036124;28;20047;-87
2021/12/04 07:53:16;;;;;;;3.20;3.00;;;1.40;99.90;;;;;;5035944;28;20519;-87
2021/12/04 07:55:43;;;;;;;3.92;3.63;;;1.30;99.90;;;;;;5053325;28;20501;-87
2021/12/04 07:58:10;;;;;;;3.28;3.08;;;1.40;99.90;;;;;;5035834;28;20059;-87
2021/12/04 08:00:37;;;;;;;8.55;3.42;;;1.40;99.90;;;;;;5035511;28;20056;-87
2021/12/04 08:03:04;;;;;;;3.58;3.38;;;1.40;99.90;;;;;;5053387;28;20049;-87
2021/12/04 08:05:31;;;;;;;4.10;3.75;;;1.40;99.90;;;;;;5053540;28;20052;-87
2021/12/04 08:07:58;;;;;;;4.32;4.03;;;1.50;99.90;;;;;;5036177;28;20049;-87
2021/12/04 08:10:24;;;;;;;9.75;4.80;;;1.50;99.90;;;;;;5035925;28;20045;-87
2021/12/04 08:12:51;;;;;;;5.50;4.22;;;1.40;99.90;;;;;;5035492;28;20516;-87
2021/12/04 08:15:18;;;;;;;3.88;3.50;;;1.60;99.90;;;;;;5035693;28;20053;-87
2021/12/04 08:17:46;;;;;;;9.52;4.07;;;1.60;99.90;;;;;;5053307;28;20053;-87
2021/12/04 08:20:15;;;;;;;4.43;3.28;;;1.70;99.90;;;;;;5035227;28;20056;-87
2021/12/04 08:22:42;;;;;;;4.00;3.72;;;1.70;99.90;;;;;;5052832;28;20049;-87
2021/12/04 08:25:13;;;;;;;4.20;3.55;;;1.70;99.90;;;;;;5034951;28;20051;-87
2021/12/04 08:27:40;;;;;;;3.92;3.63;;;1.60;99.90;;;;;;5052810;28;20481;-87
2021/12/04 08:30:10;;;;;;;4.43;4.10;;;1.60;99.90;;;;;;5052827;28;20048;-87
2021/12/04 08:32:37;;;;;;;4.28;3.88;;;1.80;99.90;;;;;;5035422;28;20063;-87
2021/12/04 08:35:06;;;;;;;4.40;4.00;;;2.00;99.90;;;;;;5035224;28;20107;-87
2021/12/04 08:37:33;;;;;;;4.43;4.03;;;1.90;99.90;;;;;;5052674;28;20044;-87
2021/12/04 08:40:01;;;;;;;6.32;5.30;;;2.10;99.90;;;;;;5055451;28;20437;-87
2021/12/04 08:42:27;;;;;;;5.38;4.57;;;2.10;99.90;;;;;;5058311;28;20552;-87
2021/12/04 08:44:54;;;;;;;3.33;3.10;;;2.30;99.90;;;;;;5068066;28;20045;-87
2021/12/04 08:47:21;;;;;;;3.58;3.28;;;2.40;99.90;;;;;;5045641;28;20416;-87
2021/12/04 08:49:48;;;;;;;4.10;3.80;;;2.50;99.90;;;;;;5056925;28;20051;-87
2021/12/04 08:52:18;;;;;;;4.82;4.35;;;2.60;99.90;;;;;;5056762;28;20500;-87
2021/12/04 08:54:45;;;;;;;6.10;4.65;;;2.90;99.90;;;;;;5039332;28;20056;-87
2021/12/04 08:57:13;;;;;;;5.10;4.47;;;2.90;99.90;;;;;;5039256;28;20083;-87
2021/12/04 08:59:40;;;;;;;5.85;4.95;;;3.20;99.90;;;;;;5039562;28;20041;-87
2021/12/04 09:02:08;;;;;;;4.82;4.43;;;3.40;99.90;;;;;;5039480;28;20136;-88
2021/12/04 09:04:35;;;;;;;3.60;3.20;;;3.60;99.90;;;;;;5039263;28;20075;-87
2021/12/04 09:07:04;;;;;;;3.58;3.28;;;3.60;99.90;;;;;;5056606;28;20472;-88
2021/12/04 09:09:32;;;;;;;4.68;3.35;;;3.60;99.90;;;;;;5038935;28;20047;-88
2021/12/04 09:12:19;;;;;;;3.10;2.90;;;3.50;99.90;;;;;;5042156;28;20482;-88
2021/12/04 09:14:46;;;;;;;3.55;3.08;;;3.40;99.90;;;;;;5038962;28;20052;-88
2021/12/04 09:17:15;;;;;;;3.40;3.10;;;3.20;99.90;;;;;;5061386;28;20076;-88
2021/12/04 09:19:42;;;;;;;3.70;3.45;;;3.00;99.90;;;;;;5073441;28;20114;-87
2021/12/04 09:22:15;;;;;;;4.32;4.03;;;2.90;99.90;;;;;;5058814;28;20102;-88
2021/12/04 09:25:00;;;;;;;6.65;5.95;;;2.80;99.90;;;;;;5061325;28;20051;-88
2021/12/04 09:27:44;;;;;;;3.63;3.42;;;2.60;99.90;;;;;;5076508;28;20040;-87
2021/12/04 10:06:14;;;;;;;3.33;3.13;;;4.80;99.90;;;;;;5075491;28;20489;-87
2021/12/04 10:17:38;;;;;;;4.00;3.70;;;4.90;99.90;;;;;;5075354;28;20055;-87
2021/12/04 10:34:27;;;;;;;2.92;2.72;;;5.20;99.90;;;;;;5060390;28;20052;-87
2021/12/04 10:37:02;;;;;;;2.63;2.53;;;5.20;99.90;;;;;;5037548;28;20045;-87
2021/12/04 10:39:29;;;;;;;5.53;3.58;;;5.10;99.90;;;;;;5037197;28;20079;-86
2021/12/04 10:41:56;;;;;;;15.38;4.10;;;4.40;99.90;;;;;;5037754;28;20409;-87
2021/12/04 10:44:26;;;;;;;4.07;3.20;;;4.50;99.90;;;;;;5037439;28;20049;-87
2021/12/04 10:47:07;;;;;;;4.30;3.88;;;4.80;99.90;;;;;;5054881;28;20048;-87
2021/12/04 10:49:49;;;;;;;3.47;3.28;;;4.90;99.90;;;;;;5037238;28;20051;-87
2021/12/04 10:52:20;;;;;;;2.95;2.75;;;4.90;99.90;;;;;;5053701;28;20159;-87
2021/12/04 10:54:52;;;;;;;3.40;3.20;;;5.00;99.90;;;;;;5037314;28;20489;-88
2021/12/04 10:57:49;;;;;;;9.10;2.78;;;5.10;99.90;;;;;;5037120;28;20051;-87
2021/12/04 11:03:23;;;;;;;3.08;2.88;;;5.10;99.90;;;;;;5046589;28;20048;-88
2021/12/04 11:23:03;;;;;;;3.00;2.80;;;4.90;99.90;;;;;;5033942;28;20493;-88
2021/12/04 11:36:26;;;;;;;3.05;2.88;;;5.10;99.90;;;;;;5054029;28;20044;-88
2021/12/04 11:39:08;;;;;;;2.92;2.72;;;5.20;99.90;;;;;;5036144;28;20055;-87
2021/12/04 11:41:53;;;;;;;3.10;2.90;;;5.50;99.90;;;;;;5036205;28;20053;-88
2021/12/04 11:44:34;;;;;;;2.42;2.33;;;5.70;99.90;;;;;;5036463;28;20063;-88
2021/12/04 11:47:01;;;;;;;3.20;3.00;;;5.80;99.90;;;;;;5036161;28;20330;-88
2021/12/04 11:49:32;;;;;;;4.15;2.80;;;5.60;99.90;;;;;;5036223;28;20065;-88
2021/12/04 11:52:04;;;;;;;2.67;2.58;;;5.30;99.90;;;;;;5053433;28;20073;-88
2021/12/04 11:54:42;;;;;;;2.38;2.28;;;5.00;99.90;;;;;;5053546;28;20064;-87
2021/12/04 11:57:13;;;;;;;2.78;2.58;;;4.90;99.90;;;;;;5053666;28;20048;-88
2021/12/04 11:59:43;;;;;;;2.63;2.53;;;4.90;99.90;;;;;;5035941;28;20052;-89
2021/12/04 12:02:22;;;;;;;2.85;2.75;;;4.80;99.90;;;;;;5036328;28;20045;-88
2021/12/04 12:04:52;;;;;;;2.47;2.35;;;4.70;99.90;;;;;;5035709;28;20052;-88
2021/12/04 12:07:23;;;;;;;2.35;2.25;;;4.60;99.90;;;;;;5053130;28;20326;-89
2021/12/04 12:10:06;;;;;;;2.88;2.70;;;4.60;99.90;;;;;;5053334;28;20064;-88
2021/12/04 12:12:37;;;;;;;2.22;2.13;;;4.60;99.90;;;;;;5053338;28;20548;-89
2021/12/04 12:15:21;;;;;;;2.42;2.33;;;4.60;99.90;;;;;;5052907;28;20041;-88
2021/12/04 12:17:48;;;;;;;2.50;2.40;;;4.60;99.90;;;;;;5035864;28;20053;-88
2021/12/04 12:20:26;;;;;;;4.85;3.00;;;4.70;99.90;;;;;;5034897;28;20049;-88
2021/12/04 12:23:04;;;;;;;2.70;2.60;;;4.70;99.90;;;;;;5034915;28;20055;-88
2021/12/04 12:25:57;;;;;;;3.63;3.03;;;4.80;99.90;;;;;;5035254;28;20049;-88
2021/12/04 12:37:24;;;;;;;2.00;1.90;;;5.10;99.90;;;;;;5052801;28;20076;-89
2021/12/04 12:40:09;;;;;;;2.30;2.20;;;5.20;99.90;;;;;;5053032;28;20136;-89
2021/12/04 12:42:40;;;;;;;3.53;2.08;;;5.10;99.90;;;;;;5035588;28;20049;-88
2021/12/04 12:45:14;;;;;;;3.83;2.55;;;5.00;99.90;;;;;;5035603;28;20159;-88
2021/12/04 12:47:54;;;;;;;3.20;3.00;;;4.80;99.90;;;;;;5053108;28;20053;-88
2021/12/04 12:50:40;;;;;;;2.75;2.55;;;4.50;99.90;;;;;;5035461;28;20147;-87
2021/12/04 12:53:10;;;;;;;3.47;3.17;;;4.60;99.90;;;;;;5035442;28;20045;-88
2021/12/04 12:55:38;;;;;;;3.13;2.92;;;4.60;99.90;;;;;;5052937;28;20147;-89
2021/12/04 12:58:40;;;;;;;3.33;3.03;;;4.60;99.90;;;;;;5035531;28;20132;-88
2021/12/04 13:12:52;;;;;;;3.60;3.35;;;4.10;99.90;;;;;;4991394;28;20050;-88
2021/12/04 13:15:41;;;;;;;3.88;3.58;;;4.00;99.90;;;;;;4994901;28;20125;-88
2021/12/04 13:18:23;;;;;;;5.43;3.67;;;3.90;99.90;;;;;;5031985;28;20072;-88
2021/12/04 13:21:08;;;;;;;3.97;3.72;;;3.90;99.90;;;;;;5045108;28;20093;-88
2021/12/04 13:24:12;;;;;;;4.43;4.03;;;3.80;99.90;;;;;;5066158;28;20083;-88
2021/12/04 13:26:52;;;;;;;4.78;4.38;;;3.70;99.90;;;;;;5048610;28;20072;-89
2021/12/04 13:29:26;;;;;;;4.45;4.07;;;3.70;99.90;;;;;;5048599;28;20068;-88
2021/12/04 13:31:55;;;;;;;5.30;4.90;;;3.70;99.90;;;;;;5047837;28;20076;-89
2021/12/04 13:34:30;;;;;;;5.00;4.60;;;3.70;99.90;;;;;;5069597;28;20056;-88
2021/12/04 13:36:59;;;;;;;5.20;4.70;;;3.60;99.90;;;;;;5053048;28;20083;-89
2021/12/04 13:39:26;;;;;;;4.63;4.22;;;3.60;99.90;;;;;;5053200;28;20055;-88
2021/12/04 13:41:58;;;;;;;4.72;4.32;;;3.60;99.90;;;;;;5054428;28;20113;-88
2021/12/04 13:44:33;;;;;;;5.35;4.85;;;3.60;99.90;;;;;;5052907;28;20404;-88
2021/12/04 13:47:06;;;;;;;4.95;4.43;;;3.60;99.90;;;;;;5031853;28;20045;-88
2021/12/04 13:49:56;;;;;;;;;;;3.50;99.90;;;;;;5052710;28;20053;-88
2021/12/04 13:52:51;;;;;;;8.23;7.05;;;3.50;99.90;;;;;;5044267;28;19936;-87
2021/12/04 13:55:26;;;;;;;5.18;4.60;;;3.40;99.90;;;;;;5055995;28;20152;-88
2021/12/04 13:58:01;;;;;;;7.47;4.88;;;3.50;99.90;;;;;;5039054;28;20059;-88
2021/12/04 14:00:34;;;;;;;4.80;4.43;;;3.60;99.90;;;;;;5057370;28;20068;-88
2021/12/04 14:03:01;;;;;;;4.78;4.35;;;3.60;99.90;;;;;;5057087;28;20053;-88
2021/12/04 14:05:31;;;;;;;4.32;3.83;;;3.50;99.90;;;;;;5033670;28;20450;-87
2021/12/04 14:08:00;;;;;;;5.75;4.53;;;3.50;99.90;;;;;;5043732;28;20048;-87
2021/12/04 14:10:32;;;;;;;4.65;4.25;;;3.50;99.90;;;;;;5037918;28;20084;-88
2021/12/04 14:13:02;;;;;;;4.57;4.15;;;3.50;99.90;;;;;;5055600;28;20438;-88
2021/12/04 14:15:30;;;;;;;4.65;3.55;;;3.50;99.90;;;;;;5055075;28;20141;-88
2021/12/04 14:17:59;;;;;;;3.78;3.47;;;3.50;99.90;;;;;;5037679;28;20466;-88
2021/12/04 14:20:27;;;;;;;4.90;4.50;;;3.50;99.90;;;;;;5055402;28;20148;-88
2021/12/04 14:22:56;;;;;;;4.38;3.95;;;3.50;99.90;;;;;;5038456;28;20095;-88
2021/12/04 14:25:24;;;;;;;4.47;4.10;;;3.50;99.90;;;;;;5038285;28;20136;-88
2021/12/04 14:27:53;;;;;;;5.45;3.50;;;3.50;99.90;;;;;;5038283;28;20458;-88
2021/12/04 14:30:27;;;;;;;3.83;3.53;;;3.60;99.90;;;;;;5037651;28;20140;-87
2021/12/04 14:32:56;;;;;;;3.80;3.40;;;3.60;99.90;;;;;;5038021;28;20045;-87
2021/12/04 14:35:30;;;;;;;4.15;3.85;;;3.60;99.90;;;;;;5038741;28;20053;-88
2021/12/04 14:37:58;;;;;;;3.83;3.40;;;3.60;99.90;;;;;;5055772;28;20132;-87
2021/12/04 14:40:31;;;;;;;4.32;3.83;;;3.60;99.90;;;;;;5037523;28;20059;-88
2021/12/04 14:42:59;;;;;;;3.60;3.30;;;3.50;99.90;;;;;;5037131;28;20045;-88
2021/12/04 14:45:30;;;;;;;3.30;3.10;;;3.50;99.90;;;;;;5054924;28;20055;-88
2021/12/04 14:48:11;;;;;;;3.63;3.33;;;3.50;99.90;;;;;;5055297;28;20055;-87
2021/12/04 14:50:41;;;;;;;3.95;3.33;;;3.50;99.90;;;;;;5037746;28;20099;-88
2021/12/04 14:53:10;;;;;;;4.53;3.55;;;3.50;99.90;;;;;;5037423;28;20143;-87
2021/12/04 14:55:41;;;;;;;3.25;3.05;;;3.50;99.90;;;;;;5037401;28;20110;-87
2021/12/04 14:58:13;;;;;;;3.42;3.13;;;3.50;99.90;;;;;;5037626;28;20190;-87
2021/12/04 15:00:44;;;;;;;3.88;3.58;;;3.40;99.90;;;;;;5054670;28;20179;-87
2021/12/04 15:03:31;;;;;;;4.15;3.20;;;3.40;99.90;;;;;;5036140;28;20049;-88
2021/12/04 15:06:03;;;;;;;3.67;3.38;;;3.30;99.90;;;;;;5037450;28;20053;-87
2021/12/04 15:08:35;;;;;;;4.32;3.42;;;3.40;99.90;;;;;;5054944;28;20047;-87
2021/12/04 15:11:14;;;;;;;3.97;3.58;;;3.40;99.90;;;;;;5037282;28;20114;-87
2021/12/04 15:13:52;;;;;;;4.05;3.75;;;3.30;99.90;;;;;;5036960;28;20044;-87
2021/12/04 15:16:32;;;;;;;3.42;3.22;;;3.30;99.90;;;;;;5036893;28;20053;-87
2021/12/04 15:19:14;;;;;;;3.72;3.42;;;3.30;99.90;;;;;;5054605;28;20548;-87
2021/12/04 15:21:47;;;;;;;3.67;3.38;;;3.40;99.90;;;;;;5055176;28;20580;-88
2021/12/04 15:24:21;;;;;;;3.40;3.20;;;3.30;99.90;;;;;;5040125;28;20465;-87
2021/12/04 15:26:51;;;;;;;3.45;3.22;;;3.20;99.90;;;;;;5054860;28;20059;-87
2021/12/04 15:29:21;;;;;;;4.10;3.70;;;3.30;99.90;;;;;;5036911;28;20049;-87
2021/12/04 15:31:50;;;;;;;12.30;7.13;;;3.30;99.90;;;;;;5036745;28;20151;-87
2021/12/04 15:34:27;;;;;;;27.20;12.98;;;3.10;99.90;;;;;;5035588;28;20048;-87
2021/12/04 15:36:54;;;;;;;8.77;5.25;;;3.10;99.90;;;;;;5053462;28;20136;-88
2021/12/04 15:39:36;;;;;;;70.82;29.77;;;3.00;99.90;;;;;;5037734;28;20056;-86
2021/12/04 15:44:56;;;;;;;172.75;61.40;;;3.00;99.90;;;;;;5052939;28;20132;-86
2021/12/04 15:47:34;;;;;;;67.47;25.65;;;3.00;99.90;;;;;;5052830;28;20124;-86
2021/12/04 15:52:57;;;;;;;21.17;9.77;;;3.10;99.90;;;;;;5052776;28;20477;-86
2021/12/04 15:55:34;;;;;;;4.32;3.92;;;3.00;99.90;;;;;;5035081;28;20144;-87
2021/12/04 15:58:05;;;;;;;7.60;6.45;;;3.10;99.90;;;;;;5035373;28;20481;-86
2021/12/04 16:00:35;;;;;;;11.55;6.65;;;3.10;99.90;;;;;;5052719;28;20140;-86
2021/12/04 16:03:04;;;;;;;12.80;6.95;;;3.10;99.90;;;;;;5053033;28;20057;-86